sensor_id;sensor_type;location;lat;lon;timestamp;P1;durP1;ratioP1;P2;durP2;ratioP2
18100;SDS011;9177;49.156;8.142;2023-07-20T00:02:19;5.32;;;4.93;;
18100;SDS011;9177;49.156;8.142;2023-07-20T00:04:47;4.93;;;4.63;;
18100;SDS011;9177;49.156;8.142;2023-07-20T00:07:14;5.32;;;4.95;;
18100;SDS011;9177;49.156;8.142;2023-07-20T00:09:40;4.95;;;4.55;;
18100;SDS011;9177;49.156;8.142;2023-07-20T00:12:08;5.32;;;4.93;;
18100;SDS011;9177;49.156;8.142;2023-07-20T00:14:35;5.32;;;4.93;;
18100;SDS011;9177;49.156;8.142;2023-07-20T00:17:02;4.93;;;4.45;;
18100;SDS011;9177;49.156;8.142;2023-07-20T00:19:29;4.55;;;4.25;;
18100;SDS011;9177;49.156;8.142;2023-07-20T00:21:58;4.57;;;4.28;;
18100;SDS011;9177;49.156;8.142;2023-07-20T00:24:25;4.53;;;4.22;;
18100;SDS011;9177;49.156;8.142;2023-07-20T00:26:52;4.85;;;4.55;;
18100;SDS011;9177;49.156;8.142;2023-07-20T00:29:19;5.05;;;4.70;;
18100;SDS011;9177;49.156;8.142;2023-07-20T00:31:46;4.50;;;4.20;;
18100;SDS011;9177;49.156;8.142;2023-07-20T00:34:14;4.72;;;4.32;;
18100;SDS011;9177;49.156;8.142;2023-07-20T00:36:41;4.47;;;4.07;;
18100;SDS011;9177;49.156;8.142;2023-07-20T00:39:17;5.07;;;4.68;;
18100;SDS011;9177;49.156;8.142;2023-07-20T00:41:47;4.50;;;4.20;;
18100;SDS011;9177;49.156;8.142;2023-07-20T00:44:14;4.95;;;4.55;;
18100;SDS011;9177;49.156;8.142;2023-07-20T00:46:41;4.82;;;4.53;;
18100;SDS011;9177;49.156;8.142;2023-07-20T00:49:14;4.40;;;4.10;;
18100;SDS011;9177;49.156;8.142;2023-07-20T00:51:46;4.78;;;4.43;;
18100;SDS011;9177;49.156;8.142;2023-07-20T00:54:16;4.55;;;4.25;;
18100;SDS011;9177;49.156;8.142;2023-07-20T00:56:43;4.55;;;4.25;;
18100;SDS011;9177;49.156;8.142;2023-07-20T00:59:11;4.95;;;4.45;;
18100;SDS011;9177;49.156;8.142;2023-07-20T01:01:37;4.25;;;3.95;;
18100;SDS011;9177;49.156;8.142;2023-07-20T01:04:05;4.38;;;4.07;;
18100;SDS011;9177;49.156;8.142;2023-07-20T01:06:34;4.30;;;3.90;;
18100;SDS011;9177;49.156;8.142;2023-07-20T01:09:12;4.82;;;4.43;;
18100;SDS011;9177;49.156;8.142;2023-07-20T01:11:46;4.32;;;4.03;;
18100;SDS011;9177;49.156;8.142;2023-07-20T01:14:24;4.32;;;4.03;;
18100;SDS011;9177;49.156;8.142;2023-07-20T01:16:52;5.07;;;4.68;;
18100;SDS011;9177;49.156;8.142;2023-07-20T01:19:19;4.72;;;4.32;;
18100;SDS011;9177;49.156;8.142;2023-07-20T01:21:48;4.10;;;3.80;;
18100;SDS011;9177;49.156;8.142;2023-07-20T01:27:29;4.28;;;3.97;;
18100;SDS011;9177;49.156;8.142;2023-07-20T01:30:50;4.72;;;4.40;;
18100;SDS011;9177;49.156;8.142;2023-07-20T01:33:26;4.35;;;4.05;;
18100;SDS011;9177;49.156;8.142;2023-07-20T01:35:56;4.10;;;3.80;;
18100;SDS011;9177;49.156;8.142;2023-07-20T01:38:25;4.25;;;3.95;;
18100;SDS011;9177;49.156;8.142;2023-07-20T01:40:53;3.83;;;3.53;;
18100;SDS011;9177;49.156;8.142;2023-07-20T01:43:20;4.28;;;3.97;;
18100;SDS011;9177;49.156;8.142;2023-07-20T01:45:47;4.00;;;3.72;;
18100;SDS011;9177;49.156;8.142;2023-07-20T01:48:19;3.90;;;3.60;;
18100;SDS011;9177;49.156;8.142;2023-07-20T01:50:53;4.22;;;3.92;;
18100;SDS011;9177;49.156;8.142;2023-07-20T01:53:20;4.30;;;4.00;;
18100;SDS011;9177;49.156;8.142;2023-07-20T01:55:48;4.00;;;3.70;;
18100;SDS011;9177;49.156;8.142;2023-07-20T01:58:15;4.32;;;4.03;;
18100;SDS011;9177;49.156;8.142;2023-07-20T02:00:42;3.97;;;3.67;;
18100;SDS011;9177;49.156;8.142;2023-07-20T02:03:09;4.75;;;3.88;;
18100;SDS011;9177;49.156;8.142;2023-07-20T02:05:37;3.95;;;3.70;;
18100;SDS011;9177;49.156;8.142;2023-07-20T02:08:05;4.40;;;4.10;;
18100;SDS011;9177;49.156;8.142;2023-07-20T02:10:32;4.10;;;3.80;;
18100;SDS011;9177;49.156;8.142;2023-07-20T02:12:59;4.00;;;3.70;;
18100;SDS011;9177;49.156;8.142;2023-07-20T02:15:26;4.00;;;3.70;;
18100;SDS011;9177;49.156;8.142;2023-07-20T02:17:53;3.95;;;3.65;;
18100;SDS011;9177;49.156;8.142;2023-07-20T02:20:22;3.67;;;3.47;;
18100;SDS011;9177;49.156;8.142;2023-07-20T02:22:53;3.75;;;3.47;;
18100;SDS011;9177;49.156;8.142;2023-07-20T02:25:29;3.72;;;3.42;;
18100;SDS011;9177;49.156;8.142;2023-07-20T02:27:56;3.58;;;3.28;;
18100;SDS011;9177;49.156;8.142;2023-07-20T02:30:23;4.20;;;3.90;;
18100;SDS011;9177;49.156;8.142;2023-07-20T02:32:50;3.85;;;3.65;;
18100;SDS011;9177;49.156;8.142;2023-07-20T02:35:17;4.47;;;4.07;;
18100;SDS011;9177;49.156;8.142;2023-07-20T02:37:44;3.80;;;3.53;;
18100;SDS011;9177;49.156;8.142;2023-07-20T02:40:11;3.85;;;3.55;;
18100;SDS011;9177;49.156;8.142;2023-07-20T02:42:40;3.60;;;3.40;;
18100;SDS011;9177;49.156;8.142;2023-07-20T02:45:10;3.88;;;3.58;;
18100;SDS011;9177;49.156;8.142;2023-07-20T02:47:37;3.60;;;3.40;;
18100;SDS011;9177;49.156;8.142;2023-07-20T02:50:31;3.58;;;3.38;;
18100;SDS011;9177;49.156;8.142;2023-07-20T02:52:58;3.60;;;3.40;;
18100;SDS011;9177;49.156;8.142;2023-07-20T02:55:25;3.65;;;3.35;;
18100;SDS011;9177;49.156;8.142;2023-07-20T02:57:53;3.45;;;3.25;;
18100;SDS011;9177;49.156;8.142;2023-07-20T03:00:20;3.58;;;3.38;;
18100;SDS011;9177;49.156;8.142;2023-07-20T03:02:58;3.65;;;3.45;;
18100;SDS011;9177;49.156;8.142;2023-07-20T03:05:25;3.17;;;2.97;;
18100;SDS011;9177;49.156;8.142;2023-07-20T03:07:53;3.53;;;3.33;;
18100;SDS011;9177;49.156;8.142;2023-07-20T03:10:20;3.08;;;2.88;;
18100;SDS011;9177;49.156;8.142;2023-07-20T03:12:47;3.92;;;3.63;;
18100;SDS011;9177;49.156;8.142;2023-07-20T03:15:18;3.30;;;3.08;;
18100;SDS011;9177;49.156;8.142;2023-07-20T03:17:47;3.15;;;2.95;;
18100;SDS011;9177;49.156;8.142;2023-07-20T03:20:14;3.60;;;3.40;;
18100;SDS011;9177;49.156;8.142;2023-07-20T03:22:41;3.50;;;3.30;;
18100;SDS011;9177;49.156;8.142;2023-07-20T03:25:08;3.10;;;2.90;;
18100;SDS011;9177;49.156;8.142;2023-07-20T03:27:35;3.50;;;3.30;;
18100;SDS011;9177;49.156;8.142;2023-07-20T03:30:07;3.08;;;2.88;;
18100;SDS011;9177;49.156;8.142;2023-07-20T03:32:36;3.60;;;3.30;;
18100;SDS011;9177;49.156;8.142;2023-07-20T03:35:03;3.08;;;2.88;;
18100;SDS011;9177;49.156;8.142;2023-07-20T03:37:30;3.22;;;3.03;;
18100;SDS011;9177;49.156;8.142;2023-07-20T03:40:00;3.65;;;3.40;;
18100;SDS011;9177;49.156;8.142;2023-07-20T03:45:16;3.53;;;3.33;;
18100;SDS011;9177;49.156;8.142;2023-07-20T03:47:50;2.90;;;2.70;;
18100;SDS011;9177;49.156;8.142;2023-07-20T03:50:21;3.17;;;2.97;;
18100;SDS011;9177;49.156;8.142;2023-07-20T03:52:48;3.15;;;2.95;;
18100;SDS011;9177;49.156;8.142;2023-07-20T03:55:18;3.28;;;3.00;;
18100;SDS011;9177;49.156;8.142;2023-07-20T03:57:46;3.03;;;2.83;;
18100;SDS011;9177;49.156;8.142;2023-07-20T04:00:16;3.22;;;3.03;;
18100;SDS011;9177;49.156;8.142;2023-07-20T04:02:43;3.03;;;2.83;;
18100;SDS011;9177;49.156;8.142;2023-07-20T04:05:11;3.15;;;2.95;;
18100;SDS011;9177;49.156;8.142;2023-07-20T04:07:38;3.50;;;3.28;;
18100;SDS011;9177;49.156;8.142;2023-07-20T04:10:05;2.88;;;2.67;;
18100;SDS011;9177;49.156;8.142;2023-07-20T04:12:33;3.17;;;2.97;;
18100;SDS011;9177;49.156;8.142;2023-07-20T04:15:00;3.08;;;2.88;;
18100;SDS011;9177;49.156;8.142;2023-07-20T04:17:28;3.33;;;3.03;;
18100;SDS011;9177;49.156;8.142;2023-07-20T04:19:55;3.10;;;2.90;;
18100;SDS011;9177;49.156;8.142;2023-07-20T04:22:24;2.75;;;2.60;;
18100;SDS011;9177;49.156;8.142;2023-07-20T04:24:55;3.10;;;2.90;;
18100;SDS011;9177;49.156;8.142;2023-07-20T04:27:22;3.05;;;2.85;;
18100;SDS011;9177;49.156;8.142;2023-07-20T04:29:49;2.95;;;2.75;;
18100;SDS011;9177;49.156;8.142;2023-07-20T04:32:16;2.90;;;2.70;;
18100;SDS011;9177;49.156;8.142;2023-07-20T04:34:43;3.03;;;2.83;;
18100;SDS011;9177;49.156;8.142;2023-07-20T04:37:10;2.92;;;2.72;;
18100;SDS011;9177;49.156;8.142;2023-07-20T04:39:39;2.63;;;2.42;;
18100;SDS011;9177;49.156;8.142;2023-07-20T04:42:06;2.97;;;2.78;;
18100;SDS011;9177;49.156;8.142;2023-07-20T04:44:35;3.03;;;2.83;;
18100;SDS011;9177;49.156;8.142;2023-07-20T04:47:02;2.45;;;2.35;;
18100;SDS011;9177;49.156;8.142;2023-07-20T04:49:30;2.97;;;2.78;;
18100;SDS011;9177;49.156;8.142;2023-07-20T04:51:57;2.65;;;2.45;;
18100;SDS011;9177;49.156;8.142;2023-07-20T04:54:23;3.00;;;2.80;;
18100;SDS011;9177;49.156;8.142;2023-07-20T04:56:53;2.70;;;2.50;;
18100;SDS011;9177;49.156;8.142;2023-07-20T04:59:20;2.80;;;2.60;;
18100;SDS011;9177;49.156;8.142;2023-07-20T05:01:47;2.90;;;2.70;;
18100;SDS011;9177;49.156;8.142;2023-07-20T05:04:17;2.83;;;2.63;;
18100;SDS011;9177;49.156;8.142;2023-07-20T05:06:44;3.03;;;2.83;;
18100;SDS011;9177;49.156;8.142;2023-07-20T05:09:11;2.80;;;2.60;;
18100;SDS011;9177;49.156;8.142;2023-07-20T05:11:43;2.70;;;2.50;;
18100;SDS011;9177;49.156;8.142;2023-07-20T05:14:18;2.90;;;2.70;;
18100;SDS011;9177;49.156;8.142;2023-07-20T05:16:46;2.97;;;2.78;;
18100;SDS011;9177;49.156;8.142;2023-07-20T05:19:12;2.90;;;2.70;;
18100;SDS011;9177;49.156;8.142;2023-07-20T05:21:39;2.55;;;2.35;;
18100;SDS011;9177;49.156;8.142;2023-07-20T05:24:10;2.80;;;2.60;;
18100;SDS011;9177;49.156;8.142;2023-07-20T05:26:46;2.78;;;2.58;;
18100;SDS011;9177;49.156;8.142;2023-07-20T05:29:15;2.50;;;2.30;;
18100;SDS011;9177;49.156;8.142;2023-07-20T05:31:43;3.00;;;2.80;;
18100;SDS011;9177;49.156;8.142;2023-07-20T05:34:10;2.67;;;2.47;;
18100;SDS011;9177;49.156;8.142;2023-07-20T05:39:34;2.90;;;2.70;;
18100;SDS011;9177;49.156;8.142;2023-07-20T05:42:04;2.88;;;2.67;;
18100;SDS011;9177;49.156;8.142;2023-07-20T05:44:36;2.17;;;2.08;;
18100;SDS011;9177;49.156;8.142;2023-07-20T05:47:05;2.38;;;2.28;;
18100;SDS011;9177;49.156;8.142;2023-07-20T05:49:32;2.35;;;2.25;;
18100;SDS011;9177;49.156;8.142;2023-07-20T05:52:00;2.40;;;2.30;;
18100;SDS011;9177;49.156;8.142;2023-07-20T05:54:35;2.70;;;2.55;;
18100;SDS011;9177;49.156;8.142;2023-07-20T05:57:04;2.40;;;2.30;;
18100;SDS011;9177;49.156;8.142;2023-07-20T05:59:35;2.38;;;2.28;;
18100;SDS011;9177;49.156;8.142;2023-07-20T06:02:05;2.53;;;2.33;;
18100;SDS011;9177;49.156;8.142;2023-07-20T06:04:33;2.20;;;2.10;;
18100;SDS011;9177;49.156;8.142;2023-07-20T06:07:00;2.50;;;2.30;;
18100;SDS011;9177;49.156;8.142;2023-07-20T06:09:27;2.50;;;2.30;;
18100;SDS011;9177;49.156;8.142;2023-07-20T06:11:54;2.55;;;2.35;;
18100;SDS011;9177;49.156;8.142;2023-07-20T06:14:21;2.17;;;2.08;;
18100;SDS011;9177;49.156;8.142;2023-07-20T06:16:48;2.47;;;2.28;;
18100;SDS011;9177;49.156;8.142;2023-07-20T06:19:17;2.55;;;2.45;;
18100;SDS011;9177;49.156;8.142;2023-07-20T06:21:44;2.45;;;2.30;;
18100;SDS011;9177;49.156;8.142;2023-07-20T06:24:14;2.90;;;2.70;;
18100;SDS011;9177;49.156;8.142;2023-07-20T06:26:41;2.60;;;2.40;;
18100;SDS011;9177;49.156;8.142;2023-07-20T06:29:08;2.38;;;2.20;;
18100;SDS011;9177;49.156;8.142;2023-07-20T06:31:38;2.63;;;2.42;;
18100;SDS011;9177;49.156;8.142;2023-07-20T06:34:05;2.33;;;2.22;;
18100;SDS011;9177;49.156;8.142;2023-07-20T06:36:33;2.38;;;2.28;;
18100;SDS011;9177;49.156;8.142;2023-07-20T06:39:00;2.60;;;2.40;;
18100;SDS011;9177;49.156;8.142;2023-07-20T06:41:28;3.03;;;2.72;;
18100;SDS011;9177;49.156;8.142;2023-07-20T06:43:54;2.38;;;2.28;;
18100;SDS011;9177;49.156;8.142;2023-07-20T06:46:23;2.38;;;2.17;;
18100;SDS011;9177;49.156;8.142;2023-07-20T06:48:51;2.50;;;2.30;;
18100;SDS011;9177;49.156;8.142;2023-07-20T06:51:18;2.58;;;2.38;;
18100;SDS011;9177;49.156;8.142;2023-07-20T06:53:47;2.75;;;2.55;;
18100;SDS011;9177;49.156;8.142;2023-07-20T06:56:14;2.28;;;2.08;;
18100;SDS011;9177;49.156;8.142;2023-07-20T06:58:41;2.40;;;2.20;;
18100;SDS011;9177;49.156;8.142;2023-07-20T07:01:08;2.58;;;2.38;;
18100;SDS011;9177;49.156;8.142;2023-07-20T07:03:35;2.50;;;2.30;;
18100;SDS011;9177;49.156;8.142;2023-07-20T07:06:03;2.67;;;2.47;;
18100;SDS011;9177;49.156;8.142;2023-07-20T07:08:30;2.88;;;2.67;;
18100;SDS011;9177;49.156;8.142;2023-07-20T07:10:58;2.97;;;2.78;;
18100;SDS011;9177;49.156;8.142;2023-07-20T07:13:26;3.20;;;2.70;;
18100;SDS011;9177;49.156;8.142;2023-07-20T07:15:52;2.47;;;2.28;;
18100;SDS011;9177;49.156;8.142;2023-07-20T07:18:19;3.20;;;2.60;;
18100;SDS011;9177;49.156;8.142;2023-07-20T07:20:50;2.75;;;2.55;;
18100;SDS011;9177;49.156;8.142;2023-07-20T07:23:18;2.83;;;2.63;;
18100;SDS011;9177;49.156;8.142;2023-07-20T07:25:45;2.67;;;2.47;;
18100;SDS011;9177;49.156;8.142;2023-07-20T07:28:14;2.70;;;2.50;;
18100;SDS011;9177;49.156;8.142;2023-07-20T07:30:41;2.80;;;2.60;;
18100;SDS011;9177;49.156;8.142;2023-07-20T07:33:08;2.90;;;2.70;;
18100;SDS011;9177;49.156;8.142;2023-07-20T07:35:36;2.95;;;2.75;;
18100;SDS011;9177;49.156;8.142;2023-07-20T07:38:03;2.78;;;2.58;;
18100;SDS011;9177;49.156;8.142;2023-07-20T07:40:31;3.00;;;2.70;;
18100;SDS011;9177;49.156;8.142;2023-07-20T07:42:59;3.13;;;2.83;;
18100;SDS011;9177;49.156;8.142;2023-07-20T07:45:27;2.78;;;2.58;;
18100;SDS011;9177;49.156;8.142;2023-07-20T07:47:55;2.70;;;2.50;;
18100;SDS011;9177;49.156;8.142;2023-07-20T07:50:22;2.90;;;2.63;;
18100;SDS011;9177;49.156;8.142;2023-07-20T07:52:49;2.63;;;2.42;;
18100;SDS011;9177;49.156;8.142;2023-07-20T07:55:16;3.17;;;2.88;;
18100;SDS011;9177;49.156;8.142;2023-07-20T07:57:44;2.50;;;2.30;;
18100;SDS011;9177;49.156;8.142;2023-07-20T08:00:12;2.97;;;2.60;;
18100;SDS011;9177;49.156;8.142;2023-07-20T08:02:42;2.80;;;2.60;;
18100;SDS011;9177;49.156;8.142;2023-07-20T08:05:09;3.05;;;2.85;;
18100;SDS011;9177;49.156;8.142;2023-07-20T08:07:36;4.03;;;2.88;;
18100;SDS011;9177;49.156;8.142;2023-07-20T08:10:04;2.90;;;2.58;;
18100;SDS011;9177;49.156;8.142;2023-07-20T08:12:32;2.65;;;2.45;;
18100;SDS011;9177;49.156;8.142;2023-07-20T08:14:59;2.80;;;2.60;;
18100;SDS011;9177;49.156;8.142;2023-07-20T08:17:26;3.00;;;2.70;;
18100;SDS011;9177;49.156;8.142;2023-07-20T08:19:55;2.55;;;2.35;;
18100;SDS011;9177;49.156;8.142;2023-07-20T08:22:22;2.60;;;2.40;;
18100;SDS011;9177;49.156;8.142;2023-07-20T08:24:49;3.08;;;2.78;;
18100;SDS011;9177;49.156;8.142;2023-07-20T08:27:16;2.40;;;2.20;;
18100;SDS011;9177;49.156;8.142;2023-07-20T08:29:43;3.05;;;2.75;;
18100;SDS011;9177;49.156;8.142;2023-07-20T08:32:10;2.65;;;2.40;;
18100;SDS011;9177;49.156;8.142;2023-07-20T08:34:38;2.92;;;2.60;;
18100;SDS011;9177;49.156;8.142;2023-07-20T08:37:07;3.55;;;2.33;;
18100;SDS011;9177;49.156;8.142;2023-07-20T08:39:35;2.15;;;2.05;;
18100;SDS011;9177;49.156;8.142;2023-07-20T08:42:02;4.00;;;2.60;;
18100;SDS011;9177;49.156;8.142;2023-07-20T08:44:31;4.38;;;2.80;;
18100;SDS011;9177;49.156;8.142;2023-07-20T08:47:00;6.20;;;2.50;;
18100;SDS011;9177;49.156;8.142;2023-07-20T08:49:29;2.83;;;2.53;;
18100;SDS011;9177;49.156;8.142;2023-07-20T08:51:58;2.45;;;2.20;;
18100;SDS011;9177;49.156;8.142;2023-07-20T08:54:29;2.55;;;2.35;;
18100;SDS011;9177;49.156;8.142;2023-07-20T08:56:58;2.53;;;2.30;;
18100;SDS011;9177;49.156;8.142;2023-07-20T08:59:28;2.92;;;2.35;;
18100;SDS011;9177;49.156;8.142;2023-07-20T09:01:56;2.78;;;2.58;;
18100;SDS011;9177;49.156;8.142;2023-07-20T09:04:24;3.45;;;2.40;;
18100;SDS011;9177;49.156;8.142;2023-07-20T09:06:51;3.78;;;2.47;;
18100;SDS011;9177;49.156;8.142;2023-07-20T09:09:18;2.50;;;2.30;;
18100;SDS011;9177;49.156;8.142;2023-07-20T09:11:47;2.53;;;2.33;;
18100;SDS011;9177;49.156;8.142;2023-07-20T09:14:14;3.03;;;2.20;;
18100;SDS011;9177;49.156;8.142;2023-07-20T09:16:48;3.60;;;2.58;;
18100;SDS011;9177;49.156;8.142;2023-07-20T09:19:15;3.78;;;2.03;;
18100;SDS011;9177;49.156;8.142;2023-07-20T09:21:46;2.85;;;2.38;;
18100;SDS011;9177;49.156;8.142;2023-07-20T09:24:14;2.42;;;2.25;;
18100;SDS011;9177;49.156;8.142;2023-07-20T09:26:42;2.40;;;2.20;;
18100;SDS011;9177;49.156;8.142;2023-07-20T09:29:11;2.83;;;2.30;;
18100;SDS011;9177;49.156;8.142;2023-07-20T09:31:38;2.90;;;2.10;;
18100;SDS011;9177;49.156;8.142;2023-07-20T09:34:06;2.60;;;2.40;;
18100;SDS011;9177;49.156;8.142;2023-07-20T09:36:33;2.38;;;2.20;;
18100;SDS011;9177;49.156;8.142;2023-07-20T09:39:03;2.65;;;2.10;;
18100;SDS011;9177;49.156;8.142;2023-07-20T09:41:30;2.20;;;2.10;;
18100;SDS011;9177;49.156;8.142;2023-07-20T09:44:12;2.13;;;2.03;;
18100;SDS011;9177;49.156;8.142;2023-07-20T09:46:41;2.42;;;2.20;;
18100;SDS011;9177;49.156;8.142;2023-07-20T09:49:10;2.42;;;2.22;;
18100;SDS011;9177;49.156;8.142;2023-07-20T09:51:38;3.08;;;2.28;;
18100;SDS011;9177;49.156;8.142;2023-07-20T09:54:05;2.35;;;2.10;;
18100;SDS011;9177;49.156;8.142;2023-07-20T09:56:34;2.75;;;2.55;;
18100;SDS011;9177;49.156;8.142;2023-07-20T09:59:02;2.40;;;2.20;;
18100;SDS011;9177;49.156;8.142;2023-07-20T10:01:32;2.17;;;2.00;;
18100;SDS011;9177;49.156;8.142;2023-07-20T10:04:02;3.22;;;2.55;;
18100;SDS011;9177;49.156;8.142;2023-07-20T10:06:31;2.70;;;2.50;;
18100;SDS011;9177;49.156;8.142;2023-07-20T10:09:00;2.42;;;2.20;;
18100;SDS011;9177;49.156;8.142;2023-07-20T10:11:29;2.45;;;2.20;;
18100;SDS011;9177;49.156;8.142;2023-07-20T10:13:58;2.35;;;2.10;;
18100;SDS011;9177;49.156;8.142;2023-07-20T10:16:29;3.08;;;2.45;;
18100;SDS011;9177;49.156;8.142;2023-07-20T10:19:02;2.53;;;2.33;;
18100;SDS011;9177;49.156;8.142;2023-07-20T10:21:32;2.28;;;1.98;;
18100;SDS011;9177;49.156;8.142;2023-07-20T10:24:04;2.70;;;2.50;;
18100;SDS011;9177;49.156;8.142;2023-07-20T10:26:32;2.58;;;2.38;;
18100;SDS011;9177;49.156;8.142;2023-07-20T10:29:00;2.50;;;2.30;;
18100;SDS011;9177;49.156;8.142;2023-07-20T10:31:28;2.40;;;2.20;;
18100;SDS011;9177;49.156;8.142;2023-07-20T10:33:57;2.20;;;2.10;;
18100;SDS011;9177;49.156;8.142;2023-07-20T10:36:25;2.10;;;2.00;;
18100;SDS011;9177;49.156;8.142;2023-07-20T10:38:54;1.92;;;1.80;;
18100;SDS011;9177;49.156;8.142;2023-07-20T10:41:24;2.78;;;2.38;;
18100;SDS011;9177;49.156;8.142;2023-07-20T10:44:01;2.53;;;2.15;;
18100;SDS011;9177;49.156;8.142;2023-07-20T10:49:26;2.50;;;2.30;;
18100;SDS011;9177;49.156;8.142;2023-07-20T10:51:57;2.35;;;2.15;;
18100;SDS011;9177;49.156;8.142;2023-07-20T10:54:35;2.10;;;2.00;;
18100;SDS011;9177;49.156;8.142;2023-07-20T10:57:25;2.40;;;2.05;;
18100;SDS011;9177;49.156;8.142;2023-07-20T11:00:08;2.20;;;2.00;;
18100;SDS011;9177;49.156;8.142;2023-07-20T11:02:47;2.92;;;2.13;;
18100;SDS011;9177;49.156;8.142;2023-07-20T11:08:11;2.22;;;2.00;;
18100;SDS011;9177;49.156;8.142;2023-07-20T11:10:39;1.83;;;1.73;;
18100;SDS011;9177;49.156;8.142;2023-07-20T11:13:16;2.17;;;1.98;;
18100;SDS011;9177;49.156;8.142;2023-07-20T11:15:44;2.33;;;2.13;;
18100;SDS011;9177;49.156;8.142;2023-07-20T11:18:12;2.22;;;1.90;;
18100;SDS011;9177;49.156;8.142;2023-07-20T11:20:40;2.20;;;2.00;;
18100;SDS011;9177;49.156;8.142;2023-07-20T11:23:09;2.05;;;1.95;;
18100;SDS011;9177;49.156;8.142;2023-07-20T11:25:39;2.00;;;1.90;;
18100;SDS011;9177;49.156;8.142;2023-07-20T11:28:06;2.00;;;1.90;;
18100;SDS011;9177;49.156;8.142;2023-07-20T11:30:35;2.47;;;1.83;;
18100;SDS011;9177;49.156;8.142;2023-07-20T11:33:03;2.40;;;2.20;;
18100;SDS011;9177;49.156;8.142;2023-07-20T11:35:30;2.08;;;1.90;;
18100;SDS011;9177;49.156;8.142;2023-07-20T11:37:57;2.20;;;2.00;;
18100;SDS011;9177;49.156;8.142;2023-07-20T11:40:25;2.47;;;1.70;;
18100;SDS011;9177;49.156;8.142;2023-07-20T11:42:53;2.10;;;1.90;;
18100;SDS011;9177;49.156;8.142;2023-07-20T11:45:20;2.17;;;1.98;;
18100;SDS011;9177;49.156;8.142;2023-07-20T11:47:47;2.33;;;1.90;;
18100;SDS011;9177;49.156;8.142;2023-07-20T11:50:15;1.98;;;1.88;;
18100;SDS011;9177;49.156;8.142;2023-07-20T11:52:42;1.85;;;1.75;;
18100;SDS011;9177;49.156;8.142;2023-07-20T11:55:10;2.22;;;2.03;;
18100;SDS011;9177;49.156;8.142;2023-07-20T11:57:40;1.73;;;1.63;;
18100;SDS011;9177;49.156;8.142;2023-07-20T12:00:07;2.00;;;1.90;;
18100;SDS011;9177;49.156;8.142;2023-07-20T12:02:37;2.10;;;1.92;;
18100;SDS011;9177;49.156;8.142;2023-07-20T12:05:05;2.47;;;2.28;;
18100;SDS011;9177;49.156;8.142;2023-07-20T12:07:35;1.98;;;1.70;;
18100;SDS011;9177;49.156;8.142;2023-07-20T12:10:06;2.20;;;2.00;;
18100;SDS011;9177;49.156;8.142;2023-07-20T12:12:34;1.90;;;1.80;;
18100;SDS011;9177;49.156;8.142;2023-07-20T12:15:15;2.00;;;1.90;;
18100;SDS011;9177;49.156;8.142;2023-07-20T12:17:43;1.80;;;1.70;;
18100;SDS011;9177;49.156;8.142;2023-07-20T12:20:10;2.13;;;1.92;;
18100;SDS011;9177;49.156;8.142;2023-07-20T12:22:38;1.60;;;1.50;;
18100;SDS011;9177;49.156;8.142;2023-07-20T12:25:06;1.90;;;1.80;;
18100;SDS011;9177;49.156;8.142;2023-07-20T12:27:35;2.22;;;1.80;;
18100;SDS011;9177;49.156;8.142;2023-07-20T12:30:03;2.20;;;1.98;;
18100;SDS011;9177;49.156;8.142;2023-07-20T12:32:33;1.80;;;1.70;;
18100;SDS011;9177;49.156;8.142;2023-07-20T12:35:00;2.08;;;1.90;;
18100;SDS011;9177;49.156;8.142;2023-07-20T12:37:27;1.67;;;1.55;;
18100;SDS011;9177;49.156;8.142;2023-07-20T12:39:57;2.00;;;1.90;;
18100;SDS011;9177;49.156;8.142;2023-07-20T12:42:24;1.75;;;1.65;;
18100;SDS011;9177;49.156;8.142;2023-07-20T12:44:51;1.70;;;1.60;;
18100;SDS011;9177;49.156;8.142;2023-07-20T12:47:18;1.88;;;1.77;;
18100;SDS011;9177;49.156;8.142;2023-07-20T12:49:47;1.92;;;1.70;;
18100;SDS011;9177;49.156;8.142;2023-07-20T12:52:14;1.70;;;1.60;;
18100;SDS011;9177;49.156;8.142;2023-07-20T12:54:41;1.60;;;1.50;;
18100;SDS011;9177;49.156;8.142;2023-07-20T12:57:08;1.77;;;1.65;;
18100;SDS011;9177;49.156;8.142;2023-07-20T12:59:35;1.85;;;1.75;;
18100;SDS011;9177;49.156;8.142;2023-07-20T13:02:03;1.83;;;1.73;;
18100;SDS011;9177;49.156;8.142;2023-07-20T13:04:30;1.80;;;1.70;;
18100;SDS011;9177;49.156;8.142;2023-07-20T13:06:58;1.80;;;1.70;;
18100;SDS011;9177;49.156;8.142;2023-07-20T13:09:25;1.92;;;1.70;;
18100;SDS011;9177;49.156;8.142;2023-07-20T13:11:53;1.70;;;1.60;;
18100;SDS011;9177;49.156;8.142;2023-07-20T13:14:22;1.70;;;1.60;;
18100;SDS011;9177;49.156;8.142;2023-07-20T13:16:49;2.30;;;2.10;;
18100;SDS011;9177;49.156;8.142;2023-07-20T13:19:16;1.85;;;1.75;;
18100;SDS011;9177;49.156;8.142;2023-07-20T13:21:43;1.52;;;1.42;;
18100;SDS011;9177;49.156;8.142;2023-07-20T13:24:12;1.63;;;1.52;;
18100;SDS011;9177;49.156;8.142;2023-07-20T13:26:39;1.83;;;1.73;;
18100;SDS011;9177;49.156;8.142;2023-07-20T13:29:09;2.58;;;1.65;;
18100;SDS011;9177;49.156;8.142;2023-07-20T13:31:36;1.75;;;1.50;;
18100;SDS011;9177;49.156;8.142;2023-07-20T13:34:03;1.80;;;1.70;;
18100;SDS011;9177;49.156;8.142;2023-07-20T13:36:31;2.42;;;1.75;;
18100;SDS011;9177;49.156;8.142;2023-07-20T13:38:58;1.55;;;1.45;;
18100;SDS011;9177;49.156;8.142;2023-07-20T13:41:26;1.40;;;1.30;;
18100;SDS011;9177;49.156;8.142;2023-07-20T13:43:53;1.70;;;1.60;;
18100;SDS011;9177;49.156;8.142;2023-07-20T13:46:20;1.67;;;1.38;;
18100;SDS011;9177;49.156;8.142;2023-07-20T13:48:47;1.30;;;1.20;;
18100;SDS011;9177;49.156;8.142;2023-07-20T13:51:15;1.67;;;1.58;;
18100;SDS011;9177;49.156;8.142;2023-07-20T13:53:42;1.83;;;1.73;;
18100;SDS011;9177;49.156;8.142;2023-07-20T13:56:11;1.67;;;1.58;;
18100;SDS011;9177;49.156;8.142;2023-07-20T13:58:40;1.60;;;1.50;;
18100;SDS011;9177;49.156;8.142;2023-07-20T14:01:07;1.60;;;1.30;;
18100;SDS011;9177;49.156;8.142;2023-07-20T14:03:34;1.70;;;1.60;;
18100;SDS011;9177;49.156;8.142;2023-07-20T14:06:03;2.10;;;1.90;;
18100;SDS011;9177;49.156;8.142;2023-07-20T14:08:30;1.70;;;1.60;;
18100;SDS011;9177;49.156;8.142;2023-07-20T14:10:57;1.55;;;1.45;;
18100;SDS011;9177;49.156;8.142;2023-07-20T14:13:24;1.73;;;1.63;;
18100;SDS011;9177;49.156;8.142;2023-07-20T14:15:53;2.25;;;1.58;;
18100;SDS011;9177;49.156;8.142;2023-07-20T14:18:20;1.77;;;1.60;;
18100;SDS011;9177;49.156;8.142;2023-07-20T14:20:47;1.33;;;1.23;;
18100;SDS011;9177;49.156;8.142;2023-07-20T14:23:14;1.80;;;1.70;;
18100;SDS011;9177;49.156;8.142;2023-07-20T14:25:41;1.40;;;1.30;;
18100;SDS011;9177;49.156;8.142;2023-07-20T14:28:08;1.50;;;1.40;;
18100;SDS011;9177;49.156;8.142;2023-07-20T14:30:35;1.40;;;1.30;;
18100;SDS011;9177;49.156;8.142;2023-07-20T14:33:04;1.75;;;1.40;;
18100;SDS011;9177;49.156;8.142;2023-07-20T14:35:32;1.45;;;1.35;;
18100;SDS011;9177;49.156;8.142;2023-07-20T14:38:00;1.70;;;1.60;;
18100;SDS011;9177;49.156;8.142;2023-07-20T14:40:28;1.63;;;1.52;;
18100;SDS011;9177;49.156;8.142;2023-07-20T14:42:55;1.70;;;1.60;;
18100;SDS011;9177;49.156;8.142;2023-07-20T14:45:22;1.80;;;1.70;;
18100;SDS011;9177;49.156;8.142;2023-07-20T14:47:49;1.50;;;1.40;;
18100;SDS011;9177;49.156;8.142;2023-07-20T14:50:21;1.65;;;1.55;;
18100;SDS011;9177;49.156;8.142;2023-07-20T14:52:49;1.50;;;1.40;;
18100;SDS011;9177;49.156;8.142;2023-07-20T14:55:16;1.40;;;1.30;;
18100;SDS011;9177;49.156;8.142;2023-07-20T14:57:44;1.27;;;1.17;;
18100;SDS011;9177;49.156;8.142;2023-07-20T15:00:11;1.67;;;1.58;;
18100;SDS011;9177;49.156;8.142;2023-07-20T15:02:39;1.73;;;1.63;;
18100;SDS011;9177;49.156;8.142;2023-07-20T15:05:08;1.77;;;1.67;;
18100;SDS011;9177;49.156;8.142;2023-07-20T15:07:37;1.35;;;1.25;;
18100;SDS011;9177;49.156;8.142;2023-07-20T15:10:04;1.42;;;1.33;;
18100;SDS011;9177;49.156;8.142;2023-07-20T15:12:32;1.50;;;1.40;;
18100;SDS011;9177;49.156;8.142;2023-07-20T15:15:02;1.70;;;1.60;;
18100;SDS011;9177;49.156;8.142;2023-07-20T15:17:32;1.63;;;1.50;;
18100;SDS011;9177;49.156;8.142;2023-07-20T15:20:00;1.45;;;1.30;;
18100;SDS011;9177;49.156;8.142;2023-07-20T15:22:29;1.48;;;1.38;;
18100;SDS011;9177;49.156;8.142;2023-07-20T15:24:58;1.45;;;1.35;;